sensor_id;sensor_type;location;lat;lon;timestamp;pressure;altitude;pressure_sealevel;temperature;humidity
5812;BME280;2932;52.400;9.558;2024-01-25T00:01:26;101623.50;;;11.76;67.73
5812;BME280;2932;52.400;9.558;2024-01-25T00:03:51;101617.16;;;11.84;67.38
5812;BME280;2932;52.400;9.558;2024-01-25T00:06:16;101624.66;;;11.66;67.71
5812;BME280;2932;52.400;9.558;2024-01-25T00:08:42;101620.94;;;11.53;68.50
5812;BME280;2932;52.400;9.558;2024-01-25T00:11:07;101629.53;;;11.60;68.27
5812;BME280;2932;52.400;9.558;2024-01-25T00:13:34;101625.19;;;11.51;68.53
5812;BME280;2932;52.400;9.558;2024-01-25T00:15:59;101617.84;;;11.55;68.38
5812;BME280;2932;52.400;9.558;2024-01-25T00:18:25;101619.97;;;11.58;68.68
5812;BME280;2932;52.400;9.558;2024-01-25T00:20:50;101627.59;;;11.61;68.17
5812;BME280;2932;52.400;9.558;2024-01-25T00:23:15;101628.88;;;11.63;68.16
5812;BME280;2932;52.400;9.558;2024-01-25T00:25:41;101634.28;;;11.60;68.35
5812;BME280;2932;52.400;9.558;2024-01-25T00:28:06;101625.81;;;11.39;68.62
5812;BME280;2932;52.400;9.558;2024-01-25T00:30:31;101628.28;;;11.58;68.41
5812;BME280;2932;52.400;9.558;2024-01-25T00:32:57;101626.81;;;11.43;68.29
5812;BME280;2932;52.400;9.558;2024-01-25T00:35:23;101629.38;;;11.65;68.07
5812;BME280;2932;52.400;9.558;2024-01-25T00:37:49;101634.47;;;11.55;68.25
5812;BME280;2932;52.400;9.558;2024-01-25T00:40:14;101631.97;;;11.70;67.85
5812;BME280;2932;52.400;9.558;2024-01-25T00:42:44;101634.75;;;11.70;67.55
5812;BME280;2932;52.400;9.558;2024-01-25T00:45:11;101633.00;;;11.40;68.16
5812;BME280;2932;52.400;9.558;2024-01-25T00:47:37;101646.31;;;11.73;67.91
5812;BME280;2932;52.400;9.558;2024-01-25T00:50:04;101637.88;;;11.78;67.64
5812;BME280;2932;52.400;9.558;2024-01-25T00:52:29;101635.56;;;11.97;67.10
5812;BME280;2932;52.400;9.558;2024-01-25T00:54:55;101636.38;;;11.72;67.38
5812;BME280;2932;52.400;9.558;2024-01-25T00:57:21;101640.63;;;11.86;67.33
5812;BME280;2932;52.400;9.558;2024-01-25T00:59:46;101630.41;;;11.52;67.64
5812;BME280;2932;52.400;9.558;2024-01-25T01:02:13;101640.94;;;11.76;67.40
5812;BME280;2932;52.400;9.558;2024-01-25T01:04:39;101645.38;;;11.77;67.75
5812;BME280;2932;52.400;9.558;2024-01-25T01:07:05;101638.38;;;11.54;67.79
5812;BME280;2932;52.400;9.558;2024-01-25T01:09:31;101640.00;;;11.55;68.13
5812;BME280;2932;52.400;9.558;2024-01-25T01:11:56;101646.38;;;11.55;68.04
5812;BME280;2932;52.400;9.558;2024-01-25T01:14:22;101632.84;;;11.45;68.23
5812;BME280;2932;52.400;9.558;2024-01-25T01:16:47;101636.59;;;11.49;68.22
5812;BME280;2932;52.400;9.558;2024-01-25T01:19:12;101640.81;;;11.55;68.12
5812;BME280;2932;52.400;9.558;2024-01-25T01:21:38;101636.75;;;11.18;68.09
5812;BME280;2932;52.400;9.558;2024-01-25T01:24:04;101629.44;;;11.14;68.69
5812;BME280;2932;52.400;9.558;2024-01-25T01:26:29;101626.78;;;11.60;67.79
5812;BME280;2932;52.400;9.558;2024-01-25T01:28:55;101629.41;;;11.31;67.95
5812;BME280;2932;52.400;9.558;2024-01-25T01:31:20;101640.50;;;11.31;68.35
5812;BME280;2932;52.400;9.558;2024-01-25T01:33:46;101628.59;;;11.22;68.47
5812;BME280;2932;52.400;9.558;2024-01-25T01:36:11;101637.09;;;11.17;68.56
5812;BME280;2932;52.400;9.558;2024-01-25T01:38:37;101641.81;;;11.16;68.66
5812;BME280;2932;52.400;9.558;2024-01-25T01:41:02;101628.13;;;11.02;68.65
5812;BME280;2932;52.400;9.558;2024-01-25T01:43:28;101649.47;;;11.28;68.42
5812;BME280;2932;52.400;9.558;2024-01-25T01:45:55;101642.94;;;11.24;68.22
5812;BME280;2932;52.400;9.558;2024-01-25T01:48:25;101651.91;;;11.29;68.39
5812;BME280;2932;52.400;9.558;2024-01-25T01:50:50;101656.13;;;11.10;68.44
5812;BME280;2932;52.400;9.558;2024-01-25T01:53:17;101644.22;;;10.92;69.10
5812;BME280;2932;52.400;9.558;2024-01-25T01:55:42;101661.13;;;10.73;69.53
5812;BME280;2932;52.400;9.558;2024-01-25T01:58:08;101656.13;;;11.10;69.25
5812;BME280;2932;52.400;9.558;2024-01-25T02:00:34;101658.69;;;10.89;68.95
5812;BME280;2932;52.400;9.558;2024-01-25T02:02:59;101658.34;;;10.82;68.99
5812;BME280;2932;52.400;9.558;2024-01-25T02:05:25;101657.53;;;10.81;69.00
5812;BME280;2932;52.400;9.558;2024-01-25T02:07:50;101665.53;;;10.91;69.06
5812;BME280;2932;52.400;9.558;2024-01-25T02:10:17;101650.13;;;11.08;68.70
5812;BME280;2932;52.400;9.558;2024-01-25T02:12:43;101663.31;;;11.11;68.61
5812;BME280;2932;52.400;9.558;2024-01-25T02:15:37;101675.03;;;11.25;68.56
5812;BME280;2932;52.400;9.558;2024-01-25T02:18:03;101677.47;;;11.09;68.38
5812;BME280;2932;52.400;9.558;2024-01-25T02:20:28;101669.44;;;10.90;68.62
5812;BME280;2932;52.400;9.558;2024-01-25T02:22:54;101671.28;;;11.03;68.96
5812;BME280;2932;52.400;9.558;2024-01-25T02:25:19;101686.13;;;11.42;68.19
5812;BME280;2932;52.400;9.558;2024-01-25T02:27:44;101675.69;;;11.22;68.40
5812;BME280;2932;52.400;9.558;2024-01-25T02:30:10;101682.06;;;11.14;68.46
5812;BME280;2932;52.400;9.558;2024-01-25T02:32:35;101690.53;;;11.52;67.85
5812;BME280;2932;52.400;9.558;2024-01-25T02:35:00;101687.59;;;11.14;68.09
5812;BME280;2932;52.400;9.558;2024-01-25T02:37:26;101672.78;;;11.18;68.11
5812;BME280;2932;52.400;9.558;2024-01-25T02:39:51;101692.72;;;10.81;68.96
5812;BME280;2932;52.400;9.558;2024-01-25T02:42:18;101705.13;;;10.92;69.03
5812;BME280;2932;52.400;9.558;2024-01-25T02:44:43;101700.25;;;10.97;68.90
5812;BME280;2932;52.400;9.558;2024-01-25T02:47:09;101702.44;;;11.18;68.44
5812;BME280;2932;52.400;9.558;2024-01-25T02:49:34;101696.06;;;11.09;68.48
5812;BME280;2932;52.400;9.558;2024-01-25T02:52:00;101697.44;;;10.72;69.18
5812;BME280;2932;52.400;9.558;2024-01-25T02:54:25;101702.00;;;10.85;69.17
5812;BME280;2932;52.400;9.558;2024-01-25T02:56:50;101704.34;;;11.00;68.60
5812;BME280;2932;52.400;9.558;2024-01-25T02:59:16;101700.38;;;10.84;68.70
5812;BME280;2932;52.400;9.558;2024-01-25T03:01:41;101693.13;;;11.05;68.34
5812;BME280;2932;52.400;9.558;2024-01-25T03:04:07;101682.00;;;10.79;68.60
5812;BME280;2932;52.400;9.558;2024-01-25T03:06:33;101692.56;;;10.77;69.02
5812;BME280;2932;52.400;9.558;2024-01-25T03:08:58;101696.47;;;10.76;69.22
5812;BME280;2932;52.400;9.558;2024-01-25T03:11:23;101701.09;;;11.07;68.51
5812;BME280;2932;52.400;9.558;2024-01-25T03:13:49;101716.50;;;10.82;68.99
5812;BME280;2932;52.400;9.558;2024-01-25T03:16:14;101715.75;;;11.07;68.17
5812;BME280;2932;52.400;9.558;2024-01-25T03:18:39;101715.00;;;10.67;68.90
5812;BME280;2932;52.400;9.558;2024-01-25T03:21:05;101718.13;;;10.74;69.01
5812;BME280;2932;52.400;9.558;2024-01-25T03:23:30;101724.16;;;10.85;69.01
5812;BME280;2932;52.400;9.558;2024-01-25T03:25:55;101721.56;;;10.88;68.40
5812;BME280;2932;52.400;9.558;2024-01-25T03:28:21;101737.25;;;11.01;68.47
5812;BME280;2932;52.400;9.558;2024-01-25T03:30:46;101732.56;;;11.28;68.00
5812;BME280;2932;52.400;9.558;2024-01-25T03:33:11;101739.19;;;11.01;68.14
5812;BME280;2932;52.400;9.558;2024-01-25T03:35:37;101747.56;;;10.70;68.91
5812;BME280;2932;52.400;9.558;2024-01-25T03:38:02;101744.84;;;10.79;69.02
5812;BME280;2932;52.400;9.558;2024-01-25T03:40:27;101751.66;;;10.81;69.01
5812;BME280;2932;52.400;9.558;2024-01-25T03:42:53;101749.44;;;10.92;68.80
5812;BME280;2932;52.400;9.558;2024-01-25T03:45:18;101758.78;;;10.65;69.42
5812;BME280;2932;52.400;9.558;2024-01-25T03:47:43;101766.41;;;10.99;69.06
5812;BME280;2932;52.400;9.558;2024-01-25T03:50:09;101756.72;;;10.79;68.94
5812;BME280;2932;52.400;9.558;2024-01-25T03:52:34;101768.66;;;10.97;68.95
5812;BME280;2932;52.400;9.558;2024-01-25T03:55:00;101776.06;;;11.10;68.38
5812;BME280;2932;52.400;9.558;2024-01-25T03:57:25;101777.97;;;10.61;69.23
5812;BME280;2932;52.400;9.558;2024-01-25T03:59:50;101776.88;;;10.71;69.42
5812;BME280;2932;52.400;9.558;2024-01-25T04:02:16;101776.19;;;10.65;69.91
5812;BME280;2932;52.400;9.558;2024-01-25T04:04:42;101779.47;;;10.67;69.67
5812;BME280;2932;52.400;9.558;2024-01-25T04:07:07;101769.91;;;10.74;69.57
5812;BME280;2932;52.400;9.558;2024-01-25T04:09:32;101773.28;;;10.71;69.56
5812;BME280;2932;52.400;9.558;2024-01-25T04:11:59;101771.22;;;10.85;69.44
5812;BME280;2932;52.400;9.558;2024-01-25T04:14:27;101769.63;;;10.92;69.07
5812;BME280;2932;52.400;9.558;2024-01-25T04:16:53;101776.06;;;10.71;69.66
5812;BME280;2932;52.400;9.558;2024-01-25T04:19:18;101770.56;;;10.79;69.14
5812;BME280;2932;52.400;9.558;2024-01-25T04:21:43;101761.59;;;10.82;68.83
5812;BME280;2932;52.400;9.558;2024-01-25T04:24:09;101761.47;;;10.87;69.08
5812;BME280;2932;52.400;9.558;2024-01-25T04:26:34;101764.91;;;10.93;69.17
5812;BME280;2932;52.400;9.558;2024-01-25T04:28:59;101761.28;;;10.75;69.09
5812;BME280;2932;52.400;9.558;2024-01-25T04:31:24;101767.13;;;10.74;69.33
5812;BME280;2932;52.400;9.558;2024-01-25T04:33:50;101770.72;;;10.74;68.99
5812;BME280;2932;52.400;9.558;2024-01-25T04:36:15;101770.66;;;10.65;69.45
5812;BME280;2932;52.400;9.558;2024-01-25T04:38:40;101768.41;;;10.67;69.31
5812;BME280;2932;52.400;9.558;2024-01-25T04:41:06;101760.59;;;10.69;69.26
5812;BME280;2932;52.400;9.558;2024-01-25T04:43:35;101783.09;;;10.85;68.54
5812;BME280;2932;52.400;9.558;2024-01-25T04:46:01;101776.00;;;11.01;68.28
5812;BME280;2932;52.400;9.558;2024-01-25T04:48:28;101785.06;;;10.76;69.02
5812;BME280;2932;52.400;9.558;2024-01-25T04:50:53;101790.59;;;10.85;69.00
5812;BME280;2932;52.400;9.558;2024-01-25T04:53:18;101796.59;;;11.18;68.34
5812;BME280;2932;52.400;9.558;2024-01-25T04:55:44;101785.19;;;11.11;68.20
5812;BME280;2932;52.400;9.558;2024-01-25T04:58:09;101798.88;;;10.76;68.86
5812;BME280;2932;52.400;9.558;2024-01-25T05:00:34;101807.38;;;10.88;69.13
5812;BME280;2932;52.400;9.558;2024-01-25T05:03:01;101803.25;;;11.08;68.72
5812;BME280;2932;52.400;9.558;2024-01-25T05:05:27;101812.44;;;10.86;68.87
5812;BME280;2932;52.400;9.558;2024-01-25T05:07:52;101817.47;;;10.84;68.76
5812;BME280;2932;52.400;9.558;2024-01-25T05:10:17;101824.22;;;11.00;68.63
5812;BME280;2932;52.400;9.558;2024-01-25T05:12:43;101814.44;;;10.94;68.77
5812;BME280;2932;52.400;9.558;2024-01-25T05:15:09;101826.28;;;10.86;68.66
5812;BME280;2932;52.400;9.558;2024-01-25T05:17:34;101827.78;;;10.92;68.45
5812;BME280;2932;52.400;9.558;2024-01-25T05:19:59;101826.47;;;10.90;68.87
5812;BME280;2932;52.400;9.558;2024-01-25T05:22:25;101835.69;;;10.77;68.66
5812;BME280;2932;52.400;9.558;2024-01-25T05:24:50;101831.13;;;10.50;69.29
5812;BME280;2932;52.400;9.558;2024-01-25T05:27:15;101840.03;;;10.69;69.07
5812;BME280;2932;52.400;9.558;2024-01-25T05:29:41;101836.13;;;10.39;69.47
5812;BME280;2932;52.400;9.558;2024-01-25T05:32:06;101841.31;;;10.63;69.24
5812;BME280;2932;52.400;9.558;2024-01-25T05:34:31;101844.00;;;10.77;68.98
5812;BME280;2932;52.400;9.558;2024-01-25T05:36:57;101842.13;;;10.63;69.32
5812;BME280;2932;52.400;9.558;2024-01-25T05:39:22;101846.59;;;10.82;69.09
5812;BME280;2932;52.400;9.558;2024-01-25T05:41:47;101848.41;;;10.78;68.85
5812;BME280;2932;52.400;9.558;2024-01-25T05:44:13;101840.69;;;10.66;68.39
5812;BME280;2932;52.400;9.558;2024-01-25T05:46:38;101850.88;;;10.34;69.54
5812;BME280;2932;52.400;9.558;2024-01-25T05:49:03;101840.56;;;10.49;69.40
5812;BME280;2932;52.400;9.558;2024-01-25T05:51:29;101844.72;;;10.38;69.70
5812;BME280;2932;52.400;9.558;2024-01-25T05:53:54;101852.81;;;10.79;69.32
5812;BME280;2932;52.400;9.558;2024-01-25T05:56:19;101851.00;;;10.52;69.33
5812;BME280;2932;52.400;9.558;2024-01-25T05:58:44;101851.81;;;10.75;69.04
5812;BME280;2932;52.400;9.558;2024-01-25T06:01:10;101848.78;;;10.62;68.88
5812;BME280;2932;52.400;9.558;2024-01-25T06:03:35;101856.34;;;10.48;69.24
5812;BME280;2932;52.400;9.558;2024-01-25T06:06:00;101866.53;;;10.61;69.25
5812;BME280;2932;52.400;9.558;2024-01-25T06:08:26;101867.81;;;10.86;68.84
5812;BME280;2932;52.400;9.558;2024-01-25T06:10:51;101883.81;;;10.67;69.08
5812;BME280;2932;52.400;9.558;2024-01-25T06:13:16;101881.56;;;10.69;69.34
5812;BME280;2932;52.400;9.558;2024-01-25T06:15:42;101881.69;;;10.42;69.29
5812;BME280;2932;52.400;9.558;2024-01-25T06:18:07;101893.44;;;10.47;69.46
5812;BME280;2932;52.400;9.558;2024-01-25T06:20:32;101891.44;;;10.39;70.45
5812;BME280;2932;52.400;9.558;2024-01-25T06:22:58;101898.34;;;10.50;69.58
5812;BME280;2932;52.400;9.558;2024-01-25T06:25:23;101895.91;;;10.49;69.99
5812;BME280;2932;52.400;9.558;2024-01-25T06:27:48;101899.88;;;10.56;69.79
5812;BME280;2932;52.400;9.558;2024-01-25T06:30:14;101901.44;;;10.26;70.58
5812;BME280;2932;52.400;9.558;2024-01-25T06:32:39;101906.84;;;10.18;70.69
5812;BME280;2932;52.400;9.558;2024-01-25T06:35:05;101909.22;;;10.24;70.84
5812;BME280;2932;52.400;9.558;2024-01-25T06:37:30;101905.13;;;10.08;71.29
5812;BME280;2932;52.400;9.558;2024-01-25T06:39:56;101898.34;;;10.28;70.88
5812;BME280;2932;52.400;9.558;2024-01-25T06:42:21;101912.59;;;10.21;71.25
5812;BME280;2932;52.400;9.558;2024-01-25T06:44:47;101903.50;;;10.43;70.88
5812;BME280;2932;52.400;9.558;2024-01-25T06:47:12;101911.53;;;9.95;71.46
5812;BME280;2932;52.400;9.558;2024-01-25T06:49:38;101917.72;;;10.00;72.08
5812;BME280;2932;52.400;9.558;2024-01-25T06:52:03;101921.59;;;10.27;71.38
5812;BME280;2932;52.400;9.558;2024-01-25T06:54:29;101931.53;;;10.14;71.71
5812;BME280;2932;52.400;9.558;2024-01-25T06:56:54;101939.53;;;10.16;71.47
5812;BME280;2932;52.400;9.558;2024-01-25T06:59:21;101937.50;;;10.08;71.36
5812;BME280;2932;52.400;9.558;2024-01-25T07:01:46;101950.69;;;10.11;71.54
5812;BME280;2932;52.400;9.558;2024-01-25T07:04:12;101944.34;;;10.10;71.69
5812;BME280;2932;52.400;9.558;2024-01-25T07:06:37;101955.75;;;9.95;71.98
5812;BME280;2932;52.400;9.558;2024-01-25T07:09:02;101957.72;;;9.94;72.08
5812;BME280;2932;52.400;9.558;2024-01-25T07:11:29;101968.09;;;10.11;72.02
5812;BME280;2932;52.400;9.558;2024-01-25T07:13:54;101967.19;;;10.16;71.58
5812;BME280;2932;52.400;9.558;2024-01-25T07:16:22;101966.69;;;10.00;71.85
5812;BME280;2932;52.400;9.558;2024-01-25T07:18:49;101968.75;;;9.81;72.09
5812;BME280;2932;52.400;9.558;2024-01-25T07:21:14;101970.50;;;9.90;72.51
5812;BME280;2932;52.400;9.558;2024-01-25T07:23:39;101963.81;;;10.05;72.02
5812;BME280;2932;52.400;9.558;2024-01-25T07:26:05;101966.38;;;10.15;72.23
5812;BME280;2932;52.400;9.558;2024-01-25T07:28:30;101964.88;;;9.82;72.50
5812;BME280;2932;52.400;9.558;2024-01-25T07:30:56;101959.97;;;9.79;72.66
5812;BME280;2932;52.400;9.558;2024-01-25T07:33:21;101957.44;;;10.18;72.19
5812;BME280;2932;52.400;9.558;2024-01-25T07:35:46;101949.47;;;10.17;72.07
5812;BME280;2932;52.400;9.558;2024-01-25T07:38:13;101950.13;;;9.86;72.25
5812;BME280;2932;52.400;9.558;2024-01-25T07:40:38;101948.44;;;10.26;71.93
5812;BME280;2932;52.400;9.558;2024-01-25T07:43:04;101948.72;;;10.39;71.38
5812;BME280;2932;52.400;9.558;2024-01-25T07:45:30;101949.72;;;10.43;71.36
5812;BME280;2932;52.400;9.558;2024-01-25T07:47:56;101956.38;;;10.42;71.59
5812;BME280;2932;52.400;9.558;2024-01-25T07:50:21;101973.69;;;10.47;71.20
5812;BME280;2932;52.400;9.558;2024-01-25T07:52:46;101983.38;;;10.22;71.43
5812;BME280;2932;52.400;9.558;2024-01-25T07:55:12;101992.06;;;10.02;72.15
5812;BME280;2932;52.400;9.558;2024-01-25T07:57:37;101999.66;;;10.38;71.64
5812;BME280;2932;52.400;9.558;2024-01-25T08:00:03;101997.41;;;10.26;71.75
5812;BME280;2932;52.400;9.558;2024-01-25T08:02:29;102009.25;;;10.40;71.45
5812;BME280;2932;52.400;9.558;2024-01-25T08:04:55;102008.88;;;10.06;71.55
5812;BME280;2932;52.400;9.558;2024-01-25T08:07:22;102009.91;;;10.23;71.91
5812;BME280;2932;52.400;9.558;2024-01-25T08:09:47;102020.16;;;10.23;71.46
5812;BME280;2932;52.400;9.558;2024-01-25T08:12:17;102013.31;;;10.56;71.07
5812;BME280;2932;52.400;9.558;2024-01-25T08:14:42;102009.91;;;10.73;70.54
5812;BME280;2932;52.400;9.558;2024-01-25T08:17:09;102010.53;;;10.70;70.79
5812;BME280;2932;52.400;9.558;2024-01-25T08:19:34;102005.69;;;10.76;70.50
5812;BME280;2932;52.400;9.558;2024-01-25T08:22:00;102023.19;;;10.49;70.96
5812;BME280;2932;52.400;9.558;2024-01-25T08:24:25;102021.44;;;10.53;70.90
5812;BME280;2932;52.400;9.558;2024-01-25T08:26:50;102025.84;;;10.54;70.97
5812;BME280;2932;52.400;9.558;2024-01-25T08:29:16;102026.88;;;10.44;71.33
5812;BME280;2932;52.400;9.558;2024-01-25T08:31:41;102019.34;;;10.22;71.58
5812;BME280;2932;52.400;9.558;2024-01-25T08:34:06;102018.50;;;10.08;72.39
5812;BME280;2932;52.400;9.558;2024-01-25T08:36:32;102028.03;;;10.16;72.23
5812;BME280;2932;52.400;9.558;2024-01-25T08:38:57;102035.19;;;10.03;72.47
5812;BME280;2932;52.400;9.558;2024-01-25T08:41:22;102029.06;;;10.20;72.61
5812;BME280;2932;52.400;9.558;2024-01-25T08:43:49;102033.13;;;10.50;71.82
5812;BME280;2932;52.400;9.558;2024-01-25T08:46:14;102030.91;;;10.74;71.27
5812;BME280;2932;52.400;9.558;2024-01-25T08:48:40;102037.16;;;10.30;71.49
5812;BME280;2932;52.400;9.558;2024-01-25T08:51:06;102029.06;;;10.33;72.08
5812;BME280;2932;52.400;9.558;2024-01-25T08:53:31;102031.19;;;10.09;72.60
5812;BME280;2932;52.400;9.558;2024-01-25T08:55:56;102022.34;;;10.48;71.82
5812;BME280;2932;52.400;9.558;2024-01-25T08:58:22;102032.78;;;10.65;71.76
5812;BME280;2932;52.400;9.558;2024-01-25T09:00:47;102043.28;;;10.41;71.50
5812;BME280;2932;52.400;9.558;2024-01-25T09:03:14;102046.19;;;10.35;72.13
5812;BME280;2932;52.400;9.558;2024-01-25T09:05:40;102045.66;;;10.20;72.45
5812;BME280;2932;52.400;9.558;2024-01-25T09:08:07;102051.34;;;10.64;71.65
5812;BME280;2932;52.400;9.558;2024-01-25T09:10:32;102050.34;;;10.83;71.33
5812;BME280;2932;52.400;9.558;2024-01-25T09:12:58;102054.69;;;9.98;72.00
5812;BME280;2932;52.400;9.558;2024-01-25T09:15:23;102050.28;;;9.97;73.19
5812;BME280;2932;52.400;9.558;2024-01-25T09:17:48;102045.16;;;10.31;72.72
5812;BME280;2932;52.400;9.558;2024-01-25T09:20:14;102047.06;;;10.45;72.14
5812;BME280;2932;52.400;9.558;2024-01-25T09:22:39;102049.84;;;10.81;71.66
5812;BME280;2932;52.400;9.558;2024-01-25T09:25:05;102050.41;;;10.91;71.09
5812;BME280;2932;52.400;9.558;2024-01-25T09:27:30;102049.38;;;10.65;70.88
5812;BME280;2932;52.400;9.558;2024-01-25T09:29:55;102061.09;;;10.48;70.98
5812;BME280;2932;52.400;9.558;2024-01-25T09:32:21;102063.00;;;10.75;71.32
5812;BME280;2932;52.400;9.558;2024-01-25T09:34:46;102061.72;;;11.17;70.16
5812;BME280;2932;52.400;9.558;2024-01-25T09:37:11;102067.19;;;11.09;70.19
5812;BME280;2932;52.400;9.558;2024-01-25T09:39:37;102070.19;;;10.62;71.30
5812;BME280;2932;52.400;9.558;2024-01-25T09:42:03;102074.28;;;10.65;71.00
5812;BME280;2932;52.400;9.558;2024-01-25T09:44:29;102071.97;;;10.81;70.92
5812;BME280;2932;52.400;9.558;2024-01-25T09:46:55;102083.03;;;10.94;70.61
5812;BME280;2932;52.400;9.558;2024-01-25T09:49:21;102086.53;;;10.86;70.12
5812;BME280;2932;52.400;9.558;2024-01-25T09:51:47;102070.53;;;11.19;69.87
5812;BME280;2932;52.400;9.558;2024-01-25T09:54:13;102080.72;;;11.10;69.70
5812;BME280;2932;52.400;9.558;2024-01-25T09:56:41;102084.34;;;10.97;70.21
5812;BME280;2932;52.400;9.558;2024-01-25T09:59:07;102093.47;;;10.48;70.82
5812;BME280;2932;52.400;9.558;2024-01-25T10:01:33;102086.88;;;11.07;70.53
5812;BME280;2932;52.400;9.558;2024-01-25T10:03:59;102088.53;;;10.72;70.79
5812;BME280;2932;52.400;9.558;2024-01-25T10:06:25;102092.31;;;10.76;70.33
5812;BME280;2932;52.400;9.558;2024-01-25T10:08:52;102086.81;;;10.49;71.03
5812;BME280;2932;52.400;9.558;2024-01-25T10:11:18;102093.16;;;10.49;71.58
5812;BME280;2932;52.400;9.558;2024-01-25T10:13:44;102093.25;;;10.72;71.21
5812;BME280;2932;52.400;9.558;2024-01-25T10:16:14;102095.50;;;11.06;70.45
5812;BME280;2932;52.400;9.558;2024-01-25T10:18:44;102083.72;;;11.22;69.77
5812;BME280;2932;52.400;9.558;2024-01-25T10:21:10;102082.47;;;11.28;69.54
5812;BME280;2932;52.400;9.558;2024-01-25T10:23:36;102076.38;;;11.18;69.35
5812;BME280;2932;52.400;9.558;2024-01-25T10:26:01;102076.22;;;11.45;69.00
5812;BME280;2932;52.400;9.558;2024-01-25T10:28:27;102080.94;;;11.22;69.29
5812;BME280;2932;52.400;9.558;2024-01-25T10:30:59;102071.16;;;11.69;68.35
5812;BME280;2932;52.400;9.558;2024-01-25T10:33:25;102070.97;;;11.88;68.15
5812;BME280;2932;52.400;9.558;2024-01-25T10:35:54;102069.19;;;11.70;68.40
5812;BME280;2932;52.400;9.558;2024-01-25T10:38:21;102086.25;;;11.55;67.65
5812;BME280;2932;52.400;9.558;2024-01-25T10:40:47;102092.09;;;11.31;68.55
5812;BME280;2932;52.400;9.558;2024-01-25T10:43:12;102087.66;;;11.97;67.52
5812;BME280;2932;52.400;9.558;2024-01-25T10:45:37;102089.03;;;11.63;67.88
5812;BME280;2932;52.400;9.558;2024-01-25T10:48:03;102089.25;;;11.22;68.74
5812;BME280;2932;52.400;9.558;2024-01-25T10:50:29;102091.72;;;11.46;68.06
5812;BME280;2932;52.400;9.558;2024-01-25T10:52:55;102083.22;;;11.20;68.83
5812;BME280;2932;52.400;9.558;2024-01-25T10:55:21;102088.94;;;11.24;68.31
5812;BME280;2932;52.400;9.558;2024-01-25T10:57:47;102094.63;;;10.83;69.37
5812;BME280;2932;52.400;9.558;2024-01-25T11:00:14;102098.84;;;11.16;69.21
5812;BME280;2932;52.400;9.558;2024-01-25T11:02:40;102100.94;;;11.11;69.33
5812;BME280;2932;52.400;9.558;2024-01-25T11:05:13;102115.22;;;10.90;69.35
5812;BME280;2932;52.400;9.558;2024-01-25T11:07:47;102102.19;;;11.27;69.40
5812;BME280;2932;52.400;9.558;2024-01-25T11:10:34;102117.66;;;11.73;68.76
5812;BME280;2932;52.400;9.558;2024-01-25T11:13:01;102121.41;;;11.46;68.31
5812;BME280;2932;52.400;9.558;2024-01-25T11:17:57;102119.72;;;10.64;69.40
5812;BME280;2932;52.400;9.558;2024-01-25T11:20:24;102104.97;;;10.41;70.30
5812;BME280;2932;52.400;9.558;2024-01-25T11:23:02;102119.59;;;10.69;70.40
5812;BME280;2932;52.400;9.558;2024-01-25T11:25:29;102117.25;;;10.62;70.81
5812;BME280;2932;52.400;9.558;2024-01-25T11:27:55;102106.00;;;10.95;70.57
5812;BME280;2932;52.400;9.558;2024-01-25T11:30:21;102107.09;;;10.58;70.69
5812;BME280;2932;52.400;9.558;2024-01-25T11:32:47;102104.13;;;10.41;71.11
5812;BME280;2932;52.400;9.558;2024-01-25T11:35:13;102101.25;;;10.59;70.65
5812;BME280;2932;52.400;9.558;2024-01-25T11:37:45;102105.88;;;10.64;70.29
5812;BME280;2932;52.400;9.558;2024-01-25T11:40:11;102102.72;;;10.43;71.07
5812;BME280;2932;52.400;9.558;2024-01-25T11:42:38;102107.09;;;10.58;70.95
5812;BME280;2932;52.400;9.558;2024-01-25T11:45:05;102102.41;;;10.45;71.50
5812;BME280;2932;52.400;9.558;2024-01-25T11:47:32;102105.56;;;10.52;71.61
5812;BME280;2932;52.400;9.558;2024-01-25T11:49:58;102108.22;;;10.71;71.32
5812;BME280;2932;52.400;9.558;2024-01-25T11:52:23;102117.53;;;10.75;70.71
5812;BME280;2932;52.400;9.558;2024-01-25T11:54:51;102112.53;;;10.63;71.04
5812;BME280;2932;52.400;9.558;2024-01-25T11:57:16;102110.16;;;10.70;71.15
5812;BME280;2932;52.400;9.558;2024-01-25T11:59:42;102109.53;;;11.09;70.68
5812;BME280;2932;52.400;9.558;2024-01-25T12:02:11;102108.22;;;10.57;70.94
5812;BME280;2932;52.400;9.558;2024-01-25T12:04:36;102110.06;;;10.75;71.16
5812;BME280;2932;52.400;9.558;2024-01-25T12:07:03;102096.03;;;10.94;70.61
5812;BME280;2932;52.400;9.558;2024-01-25T12:09:28;102097.78;;;11.03;70.18
5812;BME280;2932;52.400;9.558;2024-01-25T12:11:54;102088.31;;;11.27;69.65
5812;BME280;2932;52.400;9.558;2024-01-25T12:14:19;102079.97;;;11.72;68.90
5812;BME280;2932;52.400;9.558;2024-01-25T12:16:45;102080.72;;;11.86;68.10
5812;BME280;2932;52.400;9.558;2024-01-25T12:19:10;102087.56;;;11.57;68.01
5812;BME280;2932;52.400;9.558;2024-01-25T12:21:35;102084.50;;;11.67;68.19
5812;BME280;2932;52.400;9.558;2024-01-25T12:24:02;102077.81;;;11.68;67.75
5812;BME280;2932;52.400;9.558;2024-01-25T12:26:27;102066.78;;;11.99;66.44
5812;BME280;2932;52.400;9.558;2024-01-25T12:28:52;102068.03;;;11.93;66.78
5812;BME280;2932;52.400;9.558;2024-01-25T12:31:18;102065.28;;;11.93;67.16
5812;BME280;2932;52.400;9.558;2024-01-25T12:33:43;102074.22;;;11.90;66.96
5812;BME280;2932;52.400;9.558;2024-01-25T12:36:09;102070.13;;;11.57;67.67
5812;BME280;2932;52.400;9.558;2024-01-25T12:38:34;102066.41;;;12.01;67.16
5812;BME280;2932;52.400;9.558;2024-01-25T12:41:00;102067.41;;;11.96;67.47
5812;BME280;2932;52.400;9.558;2024-01-25T12:43:26;102079.16;;;11.93;66.86
5812;BME280;2932;52.400;9.558;2024-01-25T12:45:52;102076.69;;;12.00;66.76
5812;BME280;2932;52.400;9.558;2024-01-25T12:48:17;102078.88;;;12.12;66.17
5812;BME280;2932;52.400;9.558;2024-01-25T12:50:42;102081.38;;;12.22;66.30
5812;BME280;2932;52.400;9.558;2024-01-25T12:53:10;102082.84;;;12.28;65.85
5812;BME280;2932;52.400;9.558;2024-01-25T12:55:35;102080.47;;;12.05;66.40
5812;BME280;2932;52.400;9.558;2024-01-25T12:58:01;102068.28;;;12.14;65.42
5812;BME280;2932;52.400;9.558;2024-01-25T13:00:26;102070.56;;;12.12;65.43
5812;BME280;2932;52.400;9.558;2024-01-25T13:02:52;102077.19;;;12.51;64.81
5812;BME280;2932;52.400;9.558;2024-01-25T13:05:19;102076.03;;;12.52;64.68
5812;BME280;2932;52.400;9.558;2024-01-25T13:07:44;102076.56;;;12.88;64.28